Terminal Aerodrome Forecast
Issued by NWS Portland, OR

Home | Current Version | Previous Version | Text Only | Print | Product List | Glossary On
Versions: 1 2 3 4 5 6 7 8 9 10 11 12 13 14 15 16 17 18
000
FTUS46 KPQR 071734
TAFEUG
TAF
KEUG 071734Z 0718/0818 04008KT P6SM OVC006
     FM072100 02011KT P6SM OVC009
     FM080700 01009KT 3/4SM BR OVC004
     FM081200 01010KT 1/2SM FG OVC050
     FM081400 03009KT P6SM OVC050
     FM081500 03009KT 2SM -SN OVC003=

USA.gov is the U.S. government's official web portal to all federal, state and local government web resources and services.